createdAt,value
2023-03-05T00:01:29.852Z,9.70
2023-03-05T00:03:57.258Z,9.30
2023-03-05T00:06:28.633Z,11.10
2023-03-05T00:08:57.689Z,10.50
2023-03-05T00:11:29.624Z,10.80
2023-03-05T00:13:58.403Z,9.70
2023-03-05T00:16:27.000Z,10.90
2023-03-05T00:18:55.783Z,9.90
2023-03-05T00:21:26.625Z,11.00
2023-03-05T00:23:55.035Z,9.80
2023-03-05T00:26:24.873Z,11.50
2023-03-05T00:28:53.068Z,10.10
2023-03-05T00:31:31.346Z,10.50
2023-03-05T00:34:01.345Z,9.50
2023-03-05T00:36:34.909Z,10.10
2023-03-05T00:39:01.961Z,9.30
2023-03-05T00:41:28.960Z,9.10
2023-03-05T00:43:56.046Z,8.80
2023-03-05T00:46:28.470Z,8.60
2023-03-05T00:48:56.424Z,9.90
2023-03-05T00:51:26.868Z,8.80
2023-03-05T00:53:54.058Z,8.50
2023-03-05T00:56:23.756Z,8.30
2023-03-05T00:58:51.397Z,9.00
2023-03-05T01:01:18.797Z,9.50
2023-03-05T01:03:46.174Z,9.70
2023-03-05T01:06:16.489Z,9.00
2023-03-05T01:08:44.261Z,9.20
2023-03-05T01:11:11.854Z,9.30
2023-03-05T01:13:39.227Z,8.80
2023-03-05T01:16:08.804Z,9.10
2023-03-05T01:18:37.863Z,9.90
2023-03-05T01:21:07.539Z,9.90
2023-03-05T01:23:37.625Z,8.70
2023-03-05T01:26:05.813Z,8.30
2023-03-05T01:28:35.149Z,7.00
2023-03-05T01:31:06.152Z,7.30
2023-03-05T01:33:33.192Z,6.90
2023-03-05T01:36:07.698Z,6.60
2023-03-05T01:38:34.909Z,7.30
2023-03-05T01:41:01.880Z,7.20
2023-03-05T01:43:30.527Z,6.00
2023-03-05T01:46:12.777Z,6.50
2023-03-05T01:48:43.890Z,5.70
2023-03-05T01:51:11.450Z,6.90
2023-03-05T01:53:41.432Z,5.60
2023-03-05T01:56:10.111Z,6.80
2023-03-05T01:58:39.265Z,6.40
2023-03-05T02:01:06.435Z,5.60
2023-03-05T02:03:34.241Z,6.90
2023-03-05T02:06:06.819Z,6.30
2023-03-05T02:08:33.811Z,6.50
2023-03-05T02:11:01.710Z,7.20
2023-03-05T02:13:32.729Z,6.90
2023-03-05T02:16:02.536Z,8.20
2023-03-05T02:18:29.595Z,9.40
2023-03-05T02:20:56.480Z,11.00
2023-03-05T02:23:32.187Z,9.10
2023-03-05T02:25:59.711Z,7.80
2023-03-05T02:28:44.930Z,7.10
2023-03-05T02:33:40.961Z,6.90
2023-03-05T02:36:08.913Z,6.60
2023-03-05T02:38:35.988Z,7.10
2023-03-05T02:41:03.262Z,6.60
2023-03-05T02:43:30.691Z,5.90
2023-03-05T02:45:58.341Z,5.90
2023-03-05T02:48:25.521Z,5.40
2023-03-05T02:50:53.633Z,5.90
2023-03-05T02:53:22.084Z,5.80
2023-03-05T02:55:50.085Z,4.70
2023-03-05T02:58:18.066Z,5.40
2023-03-05T03:00:46.162Z,5.10
2023-03-05T03:03:13.760Z,5.10
2023-03-05T03:05:40.851Z,5.30
2023-03-05T03:08:08.418Z,5.20
2023-03-05T03:10:35.724Z,5.80
2023-03-05T03:13:02.813Z,6.80
2023-03-05T03:15:29.812Z,7.80
2023-03-05T03:17:56.895Z,10.00
2023-03-05T03:20:24.860Z,7.40
2023-03-05T03:22:51.844Z,6.20
2023-03-05T03:25:22.564Z,6.50
2023-03-05T03:27:52.209Z,6.00
2023-03-05T03:30:19.387Z,6.30
2023-03-05T03:32:46.485Z,6.60
2023-03-05T03:35:13.654Z,7.10
2023-03-05T03:37:40.875Z,7.40
2023-03-05T03:40:08.830Z,7.00
2023-03-05T03:42:35.839Z,6.10
2023-03-05T03:45:03.693Z,5.50
2023-03-05T03:47:30.789Z,6.20
2023-03-05T03:49:58.276Z,5.60
2023-03-05T03:52:25.974Z,5.70
2023-03-05T03:54:55.086Z,4.40
2023-03-05T03:57:22.371Z,4.60
2023-03-05T03:59:50.513Z,5.40
2023-03-05T04:02:17.968Z,4.80
2023-03-05T04:04:45.118Z,4.90
2023-03-05T04:07:12.369Z,5.10
2023-03-05T04:09:39.411Z,5.00
2023-03-05T04:12:06.734Z,4.90
2023-03-05T04:14:33.905Z,5.90
2023-03-05T04:17:00.893Z,5.70
2023-03-05T04:19:30.045Z,5.00
2023-03-05T04:21:58.874Z,5.30
2023-03-05T04:24:25.966Z,5.70
2023-03-05T04:26:53.253Z,5.10
2023-03-05T04:29:20.492Z,5.50
2023-03-05T04:31:47.525Z,6.80
2023-03-05T04:34:14.621Z,6.00
2023-03-05T04:36:41.726Z,7.10
2023-03-05T04:39:08.678Z,6.90
2023-03-05T04:41:35.686Z,7.20
2023-03-05T04:44:02.757Z,7.90
2023-03-05T04:46:30.034Z,8.70
2023-03-05T04:48:57.551Z,5.50
2023-03-05T04:51:24.897Z,5.90
2023-03-05T04:53:51.798Z,5.20
2023-03-05T04:56:18.812Z,5.10
2023-03-05T04:58:45.827Z,5.50
2023-03-05T05:01:13.181Z,11.10
2023-03-05T05:03:40.302Z,13.60
2023-03-05T05:06:07.733Z,21.50
2023-03-05T05:08:36.465Z,30.50
2023-03-05T05:11:06.247Z,10.00
2023-03-05T05:13:34.588Z,6.80
2023-03-05T05:16:02.045Z,5.20
2023-03-05T05:18:29.041Z,5.70
2023-03-05T05:20:56.026Z,11.50
2023-03-05T05:23:23.080Z,14.50
2023-03-05T05:26:01.433Z,10.30
2023-03-05T05:28:28.578Z,8.50
2023-03-05T05:30:56.662Z,7.00
2023-03-05T05:33:24.889Z,7.40
2023-03-05T05:35:52.613Z,8.80
2023-03-05T05:38:19.886Z,16.40
2023-03-05T05:40:46.842Z,9.60
2023-03-05T05:43:13.950Z,9.70
2023-03-05T05:45:40.997Z,10.80
2023-03-05T05:48:07.968Z,17.70
2023-03-05T05:50:34.945Z,16.10
2023-03-05T05:53:02.057Z,14.20
2023-03-05T05:55:29.163Z,10.60
2023-03-05T05:57:56.306Z,8.70
2023-03-05T06:00:23.340Z,8.60
2023-03-05T06:02:50.366Z,8.20
2023-03-05T06:05:17.487Z,9.30
2023-03-05T06:07:44.691Z,13.20
2023-03-05T06:10:11.827Z,12.80
2023-03-05T06:12:38.885Z,11.30
2023-03-05T06:15:06.394Z,8.70
2023-03-05T06:17:33.419Z,12.60
2023-03-05T06:20:00.507Z,11.50
2023-03-05T06:22:27.720Z,8.40
2023-03-05T06:24:54.846Z,7.00
2023-03-05T06:27:21.965Z,7.10
2023-03-05T06:29:52.569Z,7.70
2023-03-05T06:32:20.065Z,6.70
2023-03-05T06:34:47.192Z,6.10
2023-03-05T06:37:14.255Z,6.50
2023-03-05T06:39:41.211Z,6.90
2023-03-05T06:42:09.588Z,7.20
2023-03-05T06:44:43.220Z,7.30
2023-03-05T06:47:10.285Z,9.30
2023-03-05T06:49:38.489Z,8.40
2023-03-05T06:52:06.845Z,10.10
2023-03-05T06:54:33.849Z,11.90
2023-03-05T06:57:00.905Z,14.30
2023-03-05T06:59:27.829Z,16.00
2023-03-05T07:01:54.843Z,20.60
2023-03-05T07:04:23.570Z,15.30
2023-03-05T07:06:50.825Z,12.70
2023-03-05T07:09:18.269Z,13.40
2023-03-05T07:11:45.345Z,12.00
2023-03-05T07:14:12.322Z,11.80
2023-03-05T07:16:39.440Z,13.40
2023-03-05T07:19:07.505Z,11.70
2023-03-05T07:21:36.906Z,11.10
2023-03-05T07:24:06.655Z,11.60
2023-03-05T07:26:34.370Z,12.70
2023-03-05T07:29:02.205Z,12.80
2023-03-05T07:31:32.678Z,13.10
2023-03-05T07:34:01.732Z,12.50
2023-03-05T07:36:34.372Z,10.50
2023-03-05T07:39:04.213Z,13.30
2023-03-05T07:41:32.612Z,14.30
2023-03-05T07:43:59.762Z,16.70
2023-03-05T07:46:30.187Z,16.40
2023-03-05T07:48:57.251Z,16.00
2023-03-05T07:51:26.210Z,14.50
2023-03-05T07:53:55.531Z,17.00
2023-03-05T07:56:24.045Z,16.50
2023-03-05T07:58:51.911Z,17.60
2023-03-05T08:01:18.984Z,19.90
2023-03-05T08:03:45.918Z,23.80
2023-03-05T08:06:13.031Z,18.80
2023-03-05T08:08:40.054Z,17.60
2023-03-05T08:11:10.213Z,18.90
2023-03-05T08:13:37.839Z,18.50
2023-03-05T08:16:06.571Z,16.80
2023-03-05T08:18:34.115Z,17.00
2023-03-05T08:21:01.537Z,16.80
2023-03-05T08:23:29.334Z,15.80
2023-03-05T08:25:57.302Z,15.80
2023-03-05T08:28:26.874Z,16.10
2023-03-05T08:30:55.670Z,19.60
2023-03-05T08:33:22.835Z,16.40
2023-03-05T08:35:50.172Z,13.90
2023-03-05T08:38:18.920Z,13.00
2023-03-05T08:40:48.027Z,11.90
2023-03-05T08:43:33.109Z,12.10
2023-03-05T08:46:08.273Z,12.80
2023-03-05T08:48:36.408Z,12.20
2023-03-05T08:51:32.631Z,11.10
2023-03-05T08:54:01.200Z,21.40
2023-03-05T08:56:31.720Z,11.70
2023-03-05T08:58:59.952Z,10.40
2023-03-05T09:01:29.438Z,9.40
2023-03-05T09:03:59.819Z,9.00
2023-03-05T09:06:36.168Z,10.10
2023-03-05T09:09:20.338Z,10.60
2023-03-05T09:11:55.239Z,8.40
2023-03-05T09:14:27.860Z,8.00
2023-03-05T09:16:59.320Z,7.70
2023-03-05T09:19:27.150Z,7.90
2023-03-05T09:21:56.883Z,8.70
2023-03-05T09:24:24.292Z,9.40
2023-03-05T09:26:51.876Z,10.40
2023-03-05T09:29:19.739Z,10.30
2023-03-05T09:31:51.373Z,9.70
2023-03-05T09:34:18.913Z,8.60
2023-03-05T09:36:50.735Z,8.80
2023-03-05T09:39:18.060Z,8.90
2023-03-05T09:42:13.212Z,8.40
2023-03-05T09:45:02.737Z,9.50
2023-03-05T09:48:31.341Z,9.90
2023-03-05T09:51:24.499Z,8.10
2023-03-05T09:54:15.955Z,8.00
2023-03-05T09:57:14.055Z,9.30
2023-03-05T10:00:03.514Z,10.70
2023-03-05T10:02:51.221Z,9.70
2023-03-05T10:06:03.600Z,8.50
2023-03-05T10:09:22.654Z,9.20
2023-03-05T10:11:58.737Z,8.50
2023-03-05T10:14:35.541Z,10.40
2023-03-05T10:17:32.299Z,9.50
2023-03-05T10:20:24.386Z,9.80
2023-03-05T10:23:39.308Z,10.50
2023-03-05T10:26:45.018Z,9.60
2023-03-05T10:29:50.801Z,8.60
2023-03-05T10:32:39.180Z,8.60
2023-03-05T10:35:19.188Z,8.70
2023-03-05T10:38:06.175Z,8.80
2023-03-05T10:40:58.379Z,8.80
2023-03-05T10:44:09.401Z,9.60
2023-03-05T10:46:39.619Z,11.20
2023-03-05T10:49:37.155Z,10.70
2023-03-05T10:52:22.231Z,12.90
2023-03-05T10:54:51.118Z,10.50
2023-03-05T10:57:32.311Z,13.30
2023-03-05T11:00:06.020Z,11.20
2023-03-05T11:02:34.132Z,14.40
2023-03-05T11:05:01.815Z,13.00
2023-03-05T11:07:33.866Z,12.80
2023-03-05T11:10:16.045Z,12.50
2023-03-05T11:12:44.564Z,13.40
2023-03-05T11:15:12.045Z,13.70
2023-03-05T11:17:43.988Z,14.40
2023-03-05T11:20:26.814Z,15.10
2023-03-05T11:23:25.582Z,14.30
2023-03-05T11:26:02.882Z,14.60
2023-03-05T11:28:59.500Z,13.10
2023-03-05T11:31:29.880Z,14.40
2023-03-05T11:34:23.048Z,13.80
2023-03-05T11:36:52.767Z,14.50
2023-03-05T11:39:22.775Z,13.00
2023-03-05T11:41:52.163Z,11.80
2023-03-05T11:44:53.504Z,12.50
2023-03-05T11:47:46.421Z,12.10
2023-03-05T11:50:49.064Z,12.70
2023-03-05T11:53:29.230Z,13.60
2023-03-05T11:56:18.049Z,11.40
2023-03-05T11:59:10.461Z,12.80
2023-03-05T12:01:46.040Z,14.10
2023-03-05T12:04:18.099Z,11.40
2023-03-05T12:07:15.008Z,10.80
2023-03-05T12:09:52.280Z,11.60
2023-03-05T12:12:53.232Z,11.20
2023-03-05T12:16:14.297Z,11.80
2023-03-05T12:18:57.846Z,10.50
2023-03-05T12:21:38.954Z,13.00
2023-03-05T12:24:27.893Z,13.20
2023-03-05T12:27:16.291Z,14.40
2023-03-05T12:29:49.883Z,15.20
2023-03-05T12:32:24.808Z,13.00
2023-03-05T12:35:05.787Z,14.50
2023-03-05T12:37:32.650Z,14.60
2023-03-05T12:40:03.634Z,13.80
2023-03-05T12:42:30.940Z,14.40
2023-03-05T12:45:14.254Z,13.50
2023-03-05T12:47:42.798Z,14.00
2023-03-05T12:50:47.062Z,13.00
2023-03-05T12:53:19.061Z,13.80
2023-03-05T12:56:25.934Z,14.50
2023-03-05T12:59:00.058Z,14.40
2023-03-05T13:01:27.505Z,15.70
2023-03-05T13:04:00.477Z,14.60
2023-03-05T13:06:36.660Z,13.50
2023-03-05T13:09:15.777Z,13.00
2023-03-05T13:11:50.771Z,12.80
2023-03-05T13:15:03.830Z,11.80
2023-03-05T13:18:00.152Z,12.40
2023-03-05T13:21:20.141Z,11.10
2023-03-05T13:23:57.597Z,11.00
2023-03-05T13:26:35.680Z,10.10
2023-03-05T13:29:13.129Z,11.10
2023-03-05T13:31:58.825Z,11.00
2023-03-05T13:34:44.600Z,10.00
2023-03-05T13:37:20.734Z,11.90
2023-03-05T13:39:59.609Z,11.40
2023-03-05T13:42:47.614Z,10.70
2023-03-05T13:45:35.136Z,10.70
2023-03-05T13:48:21.784Z,11.80
2023-03-05T13:51:08.440Z,11.30
2023-03-05T13:53:36.560Z,13.70
2023-03-05T13:56:15.085Z,12.50
2023-03-05T13:59:16.766Z,18.50
2023-03-05T14:01:53.014Z,25.60
2023-03-05T14:04:29.942Z,27.80
2023-03-05T14:07:33.426Z,17.40
2023-03-05T14:10:08.756Z,10.60
2023-03-05T14:12:54.422Z,10.50
2023-03-05T14:18:54.822Z,11.10
2023-03-05T14:21:44.686Z,13.50
2023-03-05T14:24:31.055Z,11.00
2023-03-05T14:27:13.193Z,10.60
2023-03-05T14:30:07.605Z,10.70
2023-03-05T14:32:40.780Z,11.90
2023-03-05T14:35:39.916Z,11.70
2023-03-05T14:38:22.583Z,13.00
2023-03-05T14:41:47.956Z,19.40
2023-03-05T14:44:26.346Z,14.60
2023-03-05T14:46:54.200Z,17.70
2023-03-05T14:49:48.583Z,16.40
2023-03-05T14:55:09.106Z,14.00
2023-03-05T14:57:45.531Z,14.20
2023-03-05T15:00:16.205Z,16.20
2023-03-05T15:02:43.457Z,14.60
2023-03-05T15:05:10.675Z,12.70
2023-03-05T15:07:38.212Z,13.80
2023-03-05T15:10:12.476Z,11.50
2023-03-05T15:12:41.784Z,12.30
2023-03-05T15:18:07.105Z,14.40
2023-03-05T15:20:38.440Z,16.30
2023-03-05T15:23:05.827Z,18.20
2023-03-05T15:25:32.910Z,16.20
2023-03-05T15:28:01.227Z,16.00
2023-03-05T15:30:30.004Z,19.90
2023-03-05T15:33:00.225Z,17.20
2023-03-05T15:35:27.846Z,18.30
2023-03-05T15:37:57.969Z,17.60
2023-03-05T15:40:27.350Z,16.90
2023-03-05T15:42:56.566Z,15.30
2023-03-05T15:45:24.195Z,16.80
2023-03-05T15:47:52.698Z,15.90
2023-03-05T15:50:21.274Z,17.90
2023-03-05T15:52:49.363Z,17.30
2023-03-05T15:55:24.045Z,20.10
2023-03-05T15:57:53.326Z,14.80
2023-03-05T16:00:25.703Z,13.30
2023-03-05T16:02:53.289Z,12.20
2023-03-05T16:05:20.553Z,11.60
2023-03-05T16:07:51.737Z,11.10
2023-03-05T16:10:24.952Z,11.30
2023-03-05T16:13:03.403Z,9.50
2023-03-05T16:15:33.059Z,10.10
2023-03-05T16:18:05.700Z,10.40
2023-03-05T16:20:35.881Z,8.70
2023-03-05T16:23:04.604Z,7.90
2023-03-05T16:25:34.113Z,7.60
2023-03-05T16:28:01.284Z,8.20
2023-03-05T16:30:29.064Z,8.80
2023-03-05T16:32:56.089Z,9.10
2023-03-05T16:35:23.277Z,9.30
2023-03-05T16:37:50.624Z,9.00
2023-03-05T16:40:18.245Z,9.60
2023-03-05T16:42:45.307Z,8.90
2023-03-05T16:45:12.500Z,10.20
2023-03-05T16:47:41.343Z,11.60
2023-03-05T16:50:11.380Z,10.80
2023-03-05T16:52:38.384Z,12.50
2023-03-05T16:55:06.788Z,12.00
2023-03-05T16:57:34.237Z,12.10
2023-03-05T17:00:03.642Z,19.50
2023-03-05T17:02:31.053Z,18.10
2023-03-05T17:05:01.071Z,21.40
2023-03-05T17:07:30.647Z,22.70
2023-03-05T17:09:57.625Z,22.70
2023-03-05T17:12:24.629Z,20.70
2023-03-05T17:14:52.934Z,14.90
2023-03-05T17:17:20.207Z,14.10
2023-03-05T17:19:48.886Z,14.10
2023-03-05T17:22:18.695Z,14.00
2023-03-05T17:24:47.548Z,12.80
2023-03-05T17:27:18.487Z,16.60
2023-03-05T17:29:46.408Z,15.80
2023-03-05T17:32:14.856Z,13.70
2023-03-05T17:34:42.768Z,13.20
2023-03-05T17:37:10.547Z,13.60
2023-03-05T17:39:39.580Z,14.20
2023-03-05T17:42:20.298Z,12.30
2023-03-05T17:44:50.867Z,13.00
2023-03-05T17:47:18.004Z,14.40
2023-03-05T17:49:47.896Z,14.10
2023-03-05T17:52:15.266Z,14.30
2023-03-05T17:54:45.452Z,15.10
2023-03-05T17:57:15.386Z,14.30
2023-03-05T17:59:44.744Z,14.80
2023-03-05T18:02:12.515Z,14.30
2023-03-05T18:04:41.000Z,15.80
2023-03-05T18:07:08.129Z,16.00
2023-03-05T18:09:35.765Z,18.70
2023-03-05T18:12:02.907Z,17.40
2023-03-05T18:14:31.665Z,14.30
2023-03-05T18:16:59.639Z,15.10
2023-03-05T18:19:26.678Z,12.70
2023-03-05T18:21:53.896Z,9.70
2023-03-05T18:24:21.444Z,9.10
2023-03-05T18:26:48.959Z,9.80
2023-03-05T18:29:18.790Z,8.70
2023-03-05T18:31:46.217Z,10.10
2023-03-05T18:34:13.159Z,9.50
2023-03-05T18:36:40.962Z,12.80
2023-03-05T18:39:11.515Z,12.20
2023-03-05T18:41:41.106Z,11.50
2023-03-05T18:44:11.265Z,10.40
2023-03-05T18:46:46.257Z,11.60
2023-03-05T18:49:15.441Z,11.50
2023-03-05T18:51:49.298Z,10.80
2023-03-05T18:54:18.583Z,11.00
2023-03-05T18:56:50.062Z,11.00
2023-03-05T18:59:22.560Z,10.20
2023-03-05T19:01:53.729Z,10.60
2023-03-05T19:04:25.756Z,10.10
2023-03-05T19:06:53.133Z,13.70
2023-03-05T19:09:41.154Z,12.30
2023-03-05T19:12:09.721Z,14.50
2023-03-05T19:14:37.387Z,14.70
2023-03-05T19:17:08.706Z,14.10
2023-03-05T19:19:37.638Z,13.60
2023-03-05T19:22:06.288Z,13.70
2023-03-05T19:24:33.795Z,15.00
2023-03-05T19:27:09.645Z,15.00
2023-03-05T19:29:41.916Z,12.80
2023-03-05T19:32:13.638Z,15.00
2023-03-05T19:34:41.572Z,14.50
2023-03-05T19:37:10.997Z,15.10
2023-03-05T19:39:38.203Z,15.70
2023-03-05T19:42:10.152Z,19.20
2023-03-05T19:44:38.582Z,21.10
2023-03-05T19:47:07.576Z,16.70
2023-03-05T19:49:35.512Z,15.80
2023-03-05T19:52:05.658Z,15.00
2023-03-05T19:54:34.000Z,15.30
2023-03-05T19:57:02.697Z,16.40
2023-03-05T19:59:30.654Z,17.90
2023-03-05T20:01:58.220Z,18.50
2023-03-05T20:04:31.018Z,19.90
2023-03-05T20:07:06.748Z,18.60
2023-03-05T20:09:33.809Z,20.40
2023-03-05T20:12:04.935Z,18.00
2023-03-05T20:14:32.814Z,18.10
2023-03-05T20:17:12.125Z,19.10
2023-03-05T20:19:39.081Z,18.70
2023-03-05T20:22:06.650Z,18.00
2023-03-05T20:24:34.386Z,18.50
2023-03-05T20:27:01.707Z,19.90
2023-03-05T20:29:29.512Z,18.70
2023-03-05T20:31:56.858Z,20.90
2023-03-05T20:34:29.208Z,19.30
2023-03-05T20:36:58.375Z,20.10
2023-03-05T20:39:28.745Z,20.60
2023-03-05T20:42:01.051Z,19.60
2023-03-05T20:44:39.067Z,19.60
2023-03-05T20:47:25.573Z,19.10
2023-03-05T20:49:55.893Z,20.10
2023-03-05T20:52:26.629Z,20.00
2023-03-05T20:55:05.698Z,19.90
2023-03-05T20:57:36.991Z,19.70
2023-03-05T21:00:08.195Z,20.30
2023-03-05T21:02:35.313Z,17.70
2023-03-05T21:05:02.327Z,16.90
2023-03-05T21:07:30.364Z,17.40
2023-03-05T21:09:57.349Z,18.70
2023-03-05T21:12:24.445Z,18.10
2023-03-05T21:14:51.501Z,20.50
2023-03-05T21:17:19.127Z,17.90
2023-03-05T21:19:52.098Z,19.40
2023-03-05T21:22:19.857Z,17.60
2023-03-05T21:25:00.602Z,19.70
2023-03-05T21:27:28.500Z,19.50
2023-03-05T21:29:58.550Z,18.90
2023-03-05T21:32:28.265Z,19.80
2023-03-05T21:35:02.577Z,19.70
2023-03-05T21:37:33.796Z,18.50
2023-03-05T21:40:01.068Z,23.70
2023-03-05T21:42:28.063Z,22.60
2023-03-05T21:44:55.161Z,19.40
2023-03-05T21:47:24.536Z,21.50
2023-03-05T21:49:51.486Z,21.10
2023-03-05T21:52:21.523Z,22.00
2023-03-05T21:54:53.898Z,22.10
2023-03-05T21:57:21.910Z,28.30
2023-03-05T21:59:52.063Z,26.50
2023-03-05T22:02:20.682Z,26.70
2023-03-05T22:04:59.227Z,25.00
2023-03-05T22:07:27.477Z,25.10
2023-03-05T22:09:57.396Z,22.00
2023-03-05T22:13:04.511Z,22.00
2023-03-05T22:15:33.185Z,17.40
2023-03-05T22:18:14.266Z,17.50
2023-03-05T22:20:53.342Z,19.10
2023-03-05T22:23:27.847Z,22.90
2023-03-05T22:25:59.022Z,20.10
2023-03-05T22:28:28.464Z,16.40
2023-03-05T22:30:59.975Z,17.60
2023-03-05T22:33:28.834Z,13.50
2023-03-05T22:35:56.353Z,12.80
2023-03-05T22:38:24.804Z,11.50
2023-03-05T22:40:58.214Z,10.20
2023-03-05T22:43:25.501Z,8.60
2023-03-05T22:45:55.589Z,8.60
2023-03-05T22:48:27.818Z,7.90
2023-03-05T22:50:55.775Z,10.00
2023-03-05T22:53:27.165Z,11.60
2023-03-05T22:55:55.629Z,10.50
2023-03-05T22:58:25.620Z,10.50
2023-03-05T23:00:53.579Z,7.30
2023-03-05T23:03:24.056Z,6.40
2023-03-05T23:05:52.498Z,7.40
2023-03-05T23:08:20.680Z,8.10
2023-03-05T23:10:48.202Z,7.10
2023-03-05T23:13:15.300Z,6.60
2023-03-05T23:15:42.291Z,7.40
2023-03-05T23:18:09.362Z,8.20
2023-03-05T23:20:36.929Z,6.90
2023-03-05T23:23:03.956Z,7.20
2023-03-05T23:25:33.263Z,8.80
2023-03-05T23:28:51.292Z,8.70
2023-03-05T23:31:18.708Z,8.50
2023-03-05T23:33:46.100Z,9.10
2023-03-05T23:36:13.070Z,10.00
2023-03-05T23:38:40.058Z,8.80
2023-03-05T23:41:09.040Z,9.90
2023-03-05T23:43:40.680Z,9.50
2023-03-05T23:46:11.450Z,10.40
2023-03-05T23:48:38.413Z,10.90
2023-03-05T23:51:10.060Z,10.90
2023-03-05T23:53:37.148Z,10.80
2023-03-05T23:56:09.966Z,9.70
2023-03-05T23:58:37.885Z,8.50
